sensor_id;sensor_type;location;lat;lon;timestamp;temperature;humidity
1429;DHT22;708;51.442;7.016;2023-07-20T00:02:02;19.40;99.90
1429;DHT22;708;51.442;7.016;2023-07-20T00:04:30;19.40;99.90
1429;DHT22;708;51.442;7.016;2023-07-20T00:06:57;19.50;99.90
1429;DHT22;708;51.442;7.016;2023-07-20T00:09:24;19.50;99.90
1429;DHT22;708;51.442;7.016;2023-07-20T00:11:52;19.60;99.90
1429;DHT22;708;51.442;7.016;2023-07-20T00:14:19;19.60;99.90
1429;DHT22;708;51.442;7.016;2023-07-20T00:16:46;19.60;99.90
1429;DHT22;708;51.442;7.016;2023-07-20T00:19:14;19.60;99.90
1429;DHT22;708;51.442;7.016;2023-07-20T00:21:42;19.60;99.90
1429;DHT22;708;51.442;7.016;2023-07-20T00:24:08;19.60;99.90
1429;DHT22;708;51.442;7.016;2023-07-20T00:26:35;19.40;99.90
1429;DHT22;708;51.442;7.016;2023-07-20T00:29:03;19.40;99.90
1429;DHT22;708;51.442;7.016;2023-07-20T00:31:30;19.30;99.90
1429;DHT22;708;51.442;7.016;2023-07-20T00:33:57;19.20;99.90
1429;DHT22;708;51.442;7.016;2023-07-20T00:36:24;19.10;99.90
1429;DHT22;708;51.442;7.016;2023-07-20T00:38:51;19.10;99.90
1429;DHT22;708;51.442;7.016;2023-07-20T00:41:18;19.00;1.00
1429;DHT22;708;51.442;7.016;2023-07-20T00:43:44;18.90;1.00
1429;DHT22;708;51.442;7.016;2023-07-20T00:46:13;18.90;1.00
1429;DHT22;708;51.442;7.016;2023-07-20T00:48:41;18.90;1.00
1429;DHT22;708;51.442;7.016;2023-07-20T00:51:09;18.80;1.00
1429;DHT22;708;51.442;7.016;2023-07-20T00:53:36;18.80;1.00
1429;DHT22;708;51.442;7.016;2023-07-20T00:56:04;18.70;1.00
1429;DHT22;708;51.442;7.016;2023-07-20T00:58:30;18.70;1.00
1429;DHT22;708;51.442;7.016;2023-07-20T01:00:57;18.60;1.00
1429;DHT22;708;51.442;7.016;2023-07-20T01:03:25;18.60;1.00
1429;DHT22;708;51.442;7.016;2023-07-20T01:06:00;18.70;1.00
1429;DHT22;708;51.442;7.016;2023-07-20T01:08:37;18.70;1.00
1429;DHT22;708;51.442;7.016;2023-07-20T01:11:10;18.80;1.00
1429;DHT22;708;51.442;7.016;2023-07-20T01:13:39;18.80;1.00
1429;DHT22;708;51.442;7.016;2023-07-20T01:16:06;18.80;1.00
1429;DHT22;708;51.442;7.016;2023-07-20T01:18:34;18.80;1.00
1429;DHT22;708;51.442;7.016;2023-07-20T01:21:08;18.80;1.00
1429;DHT22;708;51.442;7.016;2023-07-20T01:24:05;18.80;1.00
1429;DHT22;708;51.442;7.016;2023-07-20T01:27:00;18.80;1.00
1429;DHT22;708;51.442;7.016;2023-07-20T01:29:50;18.70;1.00
1429;DHT22;708;51.442;7.016;2023-07-20T01:32:24;18.70;1.00
1429;DHT22;708;51.442;7.016;2023-07-20T01:34:52;18.60;1.00
1429;DHT22;708;51.442;7.016;2023-07-20T01:37:21;18.60;1.00
1429;DHT22;708;51.442;7.016;2023-07-20T01:39:52;18.60;1.00
1429;DHT22;708;51.442;7.016;2023-07-20T01:42:20;18.70;1.00
1429;DHT22;708;51.442;7.016;2023-07-20T01:44:48;18.70;1.00
1429;DHT22;708;51.442;7.016;2023-07-20T01:47:16;18.70;1.00
1429;DHT22;708;51.442;7.016;2023-07-20T01:49:44;18.80;1.00
1429;DHT22;708;51.442;7.016;2023-07-20T01:52:11;18.80;1.00
1429;DHT22;708;51.442;7.016;2023-07-20T01:54:38;18.90;1.00
1429;DHT22;708;51.442;7.016;2023-07-20T01:57:05;18.90;1.00
1429;DHT22;708;51.442;7.016;2023-07-20T01:59:31;18.80;1.00
1429;DHT22;708;51.442;7.016;2023-07-20T02:01:58;18.80;1.00
1429;DHT22;708;51.442;7.016;2023-07-20T02:04:25;18.80;1.00
1429;DHT22;708;51.442;7.016;2023-07-20T02:06:53;18.80;1.00
1429;DHT22;708;51.442;7.016;2023-07-20T02:09:20;18.80;1.00
1429;DHT22;708;51.442;7.016;2023-07-20T02:11:46;18.70;1.00
1429;DHT22;708;51.442;7.016;2023-07-20T02:14:13;18.60;1.00
1429;DHT22;708;51.442;7.016;2023-07-20T02:16:40;18.60;1.00
1429;DHT22;708;51.442;7.016;2023-07-20T02:19:06;18.50;1.00
1429;DHT22;708;51.442;7.016;2023-07-20T02:21:33;18.50;4.80
1429;DHT22;708;51.442;7.016;2023-07-20T02:24:02;18.50;10.30
1429;DHT22;708;51.442;7.016;2023-07-20T02:26:28;18.50;16.90
1429;DHT22;708;51.442;7.016;2023-07-20T02:28:55;18.50;20.10
1429;DHT22;708;51.442;7.016;2023-07-20T02:31:22;18.50;23.50
1429;DHT22;708;51.442;7.016;2023-07-20T02:33:49;18.50;24.90
1429;DHT22;708;51.442;7.016;2023-07-20T02:36:15;18.50;23.60
1429;DHT22;708;51.442;7.016;2023-07-20T02:38:43;18.50;20.90
1429;DHT22;708;51.442;7.016;2023-07-20T02:41:11;18.50;25.90
1429;DHT22;708;51.442;7.016;2023-07-20T02:43:38;18.50;30.30
1429;DHT22;708;51.442;7.016;2023-07-20T02:46:05;18.50;31.80
1429;DHT22;708;51.442;7.016;2023-07-20T02:48:31;18.40;38.10
1429;DHT22;708;51.442;7.016;2023-07-20T02:50:58;18.40;42.60
1429;DHT22;708;51.442;7.016;2023-07-20T02:53:25;18.40;47.90
1429;DHT22;708;51.442;7.016;2023-07-20T02:55:52;18.40;55.20
1429;DHT22;708;51.442;7.016;2023-07-20T02:58:20;18.30;59.50
1429;DHT22;708;51.442;7.016;2023-07-20T03:00:47;18.30;74.10
1429;DHT22;708;51.442;7.016;2023-07-20T03:03:13;18.30;92.90
1429;DHT22;708;51.442;7.016;2023-07-20T03:05:40;18.30;97.30
1429;DHT22;708;51.442;7.016;2023-07-20T03:08:07;18.20;99.90
1429;DHT22;708;51.442;7.016;2023-07-20T03:10:38;18.20;99.90
1429;DHT22;708;51.442;7.016;2023-07-20T03:13:05;18.20;99.90
1429;DHT22;708;51.442;7.016;2023-07-20T03:15:34;18.30;99.90
1429;DHT22;708;51.442;7.016;2023-07-20T03:18:01;18.30;99.90
1429;DHT22;708;51.442;7.016;2023-07-20T03:20:28;18.30;99.90
1429;DHT22;708;51.442;7.016;2023-07-20T03:22:55;18.20;99.90
1429;DHT22;708;51.442;7.016;2023-07-20T03:25:21;18.20;99.90
1429;DHT22;708;51.442;7.016;2023-07-20T03:27:48;18.10;99.90
1429;DHT22;708;51.442;7.016;2023-07-20T03:30:15;18.10;99.90
1429;DHT22;708;51.442;7.016;2023-07-20T03:32:43;18.20;99.90
1429;DHT22;708;51.442;7.016;2023-07-20T03:35:10;18.10;99.90
1429;DHT22;708;51.442;7.016;2023-07-20T03:37:37;18.10;99.90
1429;DHT22;708;51.442;7.016;2023-07-20T03:40:04;18.10;99.90
1429;DHT22;708;51.442;7.016;2023-07-20T03:42:33;18.10;99.90
1429;DHT22;708;51.442;7.016;2023-07-20T03:44:59;18.10;99.90
1429;DHT22;708;51.442;7.016;2023-07-20T03:47:26;18.10;99.90
1429;DHT22;708;51.442;7.016;2023-07-20T03:49:54;18.00;99.90
1429;DHT22;708;51.442;7.016;2023-07-20T03:52:21;18.00;99.90
1429;DHT22;708;51.442;7.016;2023-07-20T03:54:47;18.00;99.90
1429;DHT22;708;51.442;7.016;2023-07-20T03:57:14;18.10;99.90
1429;DHT22;708;51.442;7.016;2023-07-20T03:59:45;18.10;99.90
1429;DHT22;708;51.442;7.016;2023-07-20T04:02:12;18.20;99.90
1429;DHT22;708;51.442;7.016;2023-07-20T04:04:39;18.30;99.90
1429;DHT22;708;51.442;7.016;2023-07-20T04:07:07;18.30;99.90
1429;DHT22;708;51.442;7.016;2023-07-20T04:09:33;18.30;99.90
1429;DHT22;708;51.442;7.016;2023-07-20T04:12:00;18.40;99.90
1429;DHT22;708;51.442;7.016;2023-07-20T04:14:27;18.40;99.90
1429;DHT22;708;51.442;7.016;2023-07-20T04:16:54;18.40;99.90
1429;DHT22;708;51.442;7.016;2023-07-20T04:19:20;18.40;99.90
1429;DHT22;708;51.442;7.016;2023-07-20T04:21:47;18.50;99.90
1429;DHT22;708;51.442;7.016;2023-07-20T04:24:15;18.50;99.90
1429;DHT22;708;51.442;7.016;2023-07-20T04:26:42;18.60;99.90
1429;DHT22;708;51.442;7.016;2023-07-20T04:29:09;18.50;99.90
1429;DHT22;708;51.442;7.016;2023-07-20T04:31:36;18.60;99.90
1429;DHT22;708;51.442;7.016;2023-07-20T04:34:02;18.60;99.90
1429;DHT22;708;51.442;7.016;2023-07-20T04:36:29;18.70;98.20
1429;DHT22;708;51.442;7.016;2023-07-20T04:38:56;18.80;92.70
1429;DHT22;708;51.442;7.016;2023-07-20T04:41:24;18.90;83.00
1429;DHT22;708;51.442;7.016;2023-07-20T04:43:51;18.90;76.20
1429;DHT22;708;51.442;7.016;2023-07-20T04:46:18;19.00;83.80
1429;DHT22;708;51.442;7.016;2023-07-20T04:48:46;19.10;67.20
1429;DHT22;708;51.442;7.016;2023-07-20T04:51:13;19.10;57.80
1429;DHT22;708;51.442;7.016;2023-07-20T04:53:40;19.20;47.50
1429;DHT22;708;51.442;7.016;2023-07-20T04:56:07;19.30;45.50
1429;DHT22;708;51.442;7.016;2023-07-20T04:58:35;19.50;43.70
1429;DHT22;708;51.442;7.016;2023-07-20T05:01:02;19.60;25.00
1429;DHT22;708;51.442;7.016;2023-07-20T05:03:29;19.70;12.40
1429;DHT22;708;51.442;7.016;2023-07-20T05:05:56;19.70;11.10
1429;DHT22;708;51.442;7.016;2023-07-20T05:08:23;19.70;1.00
1429;DHT22;708;51.442;7.016;2023-07-20T05:10:50;19.70;1.00
1429;DHT22;708;51.442;7.016;2023-07-20T05:13:16;19.60;1.00
1429;DHT22;708;51.442;7.016;2023-07-20T05:15:44;19.50;2.30
1429;DHT22;708;51.442;7.016;2023-07-20T05:18:11;19.40;10.70
1429;DHT22;708;51.442;7.016;2023-07-20T05:20:38;19.40;6.10
1429;DHT22;708;51.442;7.016;2023-07-20T05:23:05;19.20;13.10
1429;DHT22;708;51.442;7.016;2023-07-20T05:25:31;19.10;18.10
1429;DHT22;708;51.442;7.016;2023-07-20T05:27:59;19.00;22.70
1429;DHT22;708;51.442;7.016;2023-07-20T05:30:25;18.90;19.00
1429;DHT22;708;51.442;7.016;2023-07-20T05:32:56;18.90;22.00
1429;DHT22;708;51.442;7.016;2023-07-20T05:35:22;18.90;21.90
1429;DHT22;708;51.442;7.016;2023-07-20T05:37:49;18.90;22.60
1429;DHT22;708;51.442;7.016;2023-07-20T05:40:16;18.90;22.70
1429;DHT22;708;51.442;7.016;2023-07-20T05:42:44;18.90;25.50
1429;DHT22;708;51.442;7.016;2023-07-20T05:45:11;18.90;26.20
1429;DHT22;708;51.442;7.016;2023-07-20T05:47:38;18.80;19.10
1429;DHT22;708;51.442;7.016;2023-07-20T05:50:07;18.80;17.10
1429;DHT22;708;51.442;7.016;2023-07-20T05:52:34;18.80;10.70
1429;DHT22;708;51.442;7.016;2023-07-20T05:55:01;18.80;5.90
1429;DHT22;708;51.442;7.016;2023-07-20T05:57:28;18.90;7.80
1429;DHT22;708;51.442;7.016;2023-07-20T05:59:55;18.90;1.00
1429;DHT22;708;51.442;7.016;2023-07-20T06:02:22;19.10;1.00
1429;DHT22;708;51.442;7.016;2023-07-20T06:04:49;19.20;1.00
1429;DHT22;708;51.442;7.016;2023-07-20T06:07:17;19.90;1.00
1429;DHT22;708;51.442;7.016;2023-07-20T06:09:43;21.50;1.00
1429;DHT22;708;51.442;7.016;2023-07-20T06:12:10;23.40;99.90
1429;DHT22;708;51.442;7.016;2023-07-20T06:14:37;24.40;1.00
1429;DHT22;708;51.442;7.016;2023-07-20T06:17:04;24.50;40.70
1429;DHT22;708;51.442;7.016;2023-07-20T06:19:31;24.30;38.10
1429;DHT22;708;51.442;7.016;2023-07-20T06:21:58;24.10;1.00
1429;DHT22;708;51.442;7.016;2023-07-20T06:24:26;23.90;98.00
1429;DHT22;708;51.442;7.016;2023-07-20T06:26:53;23.60;99.90
1429;DHT22;708;51.442;7.016;2023-07-20T06:29:19;23.40;1.00
1429;DHT22;708;51.442;7.016;2023-07-20T06:31:46;23.10;1.00
1429;DHT22;708;51.442;7.016;2023-07-20T06:34:13;23.40;1.00
1429;DHT22;708;51.442;7.016;2023-07-20T06:36:39;23.40;99.90
1429;DHT22;708;51.442;7.016;2023-07-20T06:39:06;23.20;99.90
1429;DHT22;708;51.442;7.016;2023-07-20T06:41:34;23.20;1.00
1429;DHT22;708;51.442;7.016;2023-07-20T06:44:01;26.70;1.00
1429;DHT22;708;51.442;7.016;2023-07-20T06:46:28;26.70;1.00
1429;DHT22;708;51.442;7.016;2023-07-20T06:48:55;28.10;1.00
1429;DHT22;708;51.442;7.016;2023-07-20T06:51:22;29.20;99.90
1429;DHT22;708;51.442;7.016;2023-07-20T06:53:49;29.70;99.90
1429;DHT22;708;51.442;7.016;2023-07-20T06:56:16;29.80;99.90
1429;DHT22;708;51.442;7.016;2023-07-20T06:58:44;29.60;99.90
1429;DHT22;708;51.442;7.016;2023-07-20T07:01:11;28.80;99.90
1429;DHT22;708;51.442;7.016;2023-07-20T07:03:38;28.10;99.90
1429;DHT22;708;51.442;7.016;2023-07-20T07:08:32;29.70;99.90
1429;DHT22;708;51.442;7.016;2023-07-20T07:10:58;31.10;99.90
1429;DHT22;708;51.442;7.016;2023-07-20T07:13:25;32.00;85.50
1429;DHT22;708;51.442;7.016;2023-07-20T07:15:53;32.50;58.60
1429;DHT22;708;51.442;7.016;2023-07-20T07:18:22;32.90;36.20
1429;DHT22;708;51.442;7.016;2023-07-20T07:20:51;33.00;24.80
1429;DHT22;708;51.442;7.016;2023-07-20T07:23:18;32.20;26.80
1429;DHT22;708;51.442;7.016;2023-07-20T07:25:45;32.30;18.00
1429;DHT22;708;51.442;7.016;2023-07-20T07:28:12;33.20;10.50
1429;DHT22;708;51.442;7.016;2023-07-20T07:33:07;34.80;1.00
1429;DHT22;708;51.442;7.016;2023-07-20T07:35:34;35.90;25.10
1429;DHT22;708;51.442;7.016;2023-07-20T07:38:00;36.90;1.00
1429;DHT22;708;51.442;7.016;2023-07-20T07:40:27;37.40;1.00
1429;DHT22;708;51.442;7.016;2023-07-20T07:42:54;38.10;1.00
1429;DHT22;708;51.442;7.016;2023-07-20T07:45:21;38.30;1.00
1429;DHT22;708;51.442;7.016;2023-07-20T07:47:47;38.10;1.00
1429;DHT22;708;51.442;7.016;2023-07-20T07:50:16;38.60;1.00
1429;DHT22;708;51.442;7.016;2023-07-20T07:52:43;37.90;1.00
1429;DHT22;708;51.442;7.016;2023-07-20T07:55:09;37.70;1.00
1429;DHT22;708;51.442;7.016;2023-07-20T07:57:36;37.00;1.00
1429;DHT22;708;51.442;7.016;2023-07-20T08:00:03;36.10;1.00
1429;DHT22;708;51.442;7.016;2023-07-20T08:02:31;34.70;1.00
1429;DHT22;708;51.442;7.016;2023-07-20T08:04:58;32.90;1.00
1429;DHT22;708;51.442;7.016;2023-07-20T08:07:27;32.20;1.00
1429;DHT22;708;51.442;7.016;2023-07-20T08:12:21;29.40;14.40
1429;DHT22;708;51.442;7.016;2023-07-20T08:14:48;28.70;1.00
1429;DHT22;708;51.442;7.016;2023-07-20T08:17:15;28.60;1.00
1429;DHT22;708;51.442;7.016;2023-07-20T08:19:42;28.40;13.40
1429;DHT22;708;51.442;7.016;2023-07-20T08:27:09;30.90;11.10
1429;DHT22;708;51.442;7.016;2023-07-20T08:29:35;32.20;8.50
1429;DHT22;708;51.442;7.016;2023-07-20T08:32:03;33.50;1.70
1429;DHT22;708;51.442;7.016;2023-07-20T08:34:30;34.40;1.00
1429;DHT22;708;51.442;7.016;2023-07-20T08:36:58;36.00;1.00
1429;DHT22;708;51.442;7.016;2023-07-20T08:39:25;36.00;1.00
1429;DHT22;708;51.442;7.016;2023-07-20T08:41:54;36.70;1.00
1429;DHT22;708;51.442;7.016;2023-07-20T08:44:21;35.90;1.00
1429;DHT22;708;51.442;7.016;2023-07-20T08:46:49;35.70;1.00
1429;DHT22;708;51.442;7.016;2023-07-20T08:49:17;36.00;1.00
1429;DHT22;708;51.442;7.016;2023-07-20T08:51:45;35.20;1.00
1429;DHT22;708;51.442;7.016;2023-07-20T08:54:13;33.90;1.00
1429;DHT22;708;51.442;7.016;2023-07-20T08:56:41;34.00;1.00
1429;DHT22;708;51.442;7.016;2023-07-20T08:59:10;33.80;1.00
1429;DHT22;708;51.442;7.016;2023-07-20T09:01:39;33.80;1.00
1429;DHT22;708;51.442;7.016;2023-07-20T09:04:07;33.50;1.00
1429;DHT22;708;51.442;7.016;2023-07-20T09:06:35;33.80;1.00
1429;DHT22;708;51.442;7.016;2023-07-20T09:09:02;34.80;1.00
1429;DHT22;708;51.442;7.016;2023-07-20T09:11:28;35.80;1.00
1429;DHT22;708;51.442;7.016;2023-07-20T09:14:06;36.80;1.00
1429;DHT22;708;51.442;7.016;2023-07-20T09:16:47;37.40;1.00
1429;DHT22;708;51.442;7.016;2023-07-20T09:19:15;38.10;1.00
1429;DHT22;708;51.442;7.016;2023-07-20T09:21:44;38.80;1.00
1429;DHT22;708;51.442;7.016;2023-07-20T09:24:11;39.20;1.00
1429;DHT22;708;51.442;7.016;2023-07-20T09:29:08;40.20;1.00
1429;DHT22;708;51.442;7.016;2023-07-20T09:31:37;40.30;1.00
1429;DHT22;708;51.442;7.016;2023-07-20T09:34:04;40.30;1.00
1429;DHT22;708;51.442;7.016;2023-07-20T09:36:33;40.50;1.00
1429;DHT22;708;51.442;7.016;2023-07-20T09:39:00;40.30;1.00
1429;DHT22;708;51.442;7.016;2023-07-20T09:41:27;40.10;1.00
1429;DHT22;708;51.442;7.016;2023-07-20T09:43:54;40.10;1.00
1429;DHT22;708;51.442;7.016;2023-07-20T09:46:21;39.90;1.00
1429;DHT22;708;51.442;7.016;2023-07-20T09:48:53;38.60;1.00
1429;DHT22;708;51.442;7.016;2023-07-20T09:51:21;36.30;1.00
1429;DHT22;708;51.442;7.016;2023-07-20T09:53:49;35.90;1.00
1429;DHT22;708;51.442;7.016;2023-07-20T09:56:21;34.50;1.00
1429;DHT22;708;51.442;7.016;2023-07-20T09:58:49;33.50;1.00
1429;DHT22;708;51.442;7.016;2023-07-20T10:01:20;33.20;1.00
1429;DHT22;708;51.442;7.016;2023-07-20T10:03:47;32.80;1.00
1429;DHT22;708;51.442;7.016;2023-07-20T10:06:22;32.40;1.00
1429;DHT22;708;51.442;7.016;2023-07-20T10:08:52;32.20;1.00
1429;DHT22;708;51.442;7.016;2023-07-20T10:11:22;32.50;1.00
1429;DHT22;708;51.442;7.016;2023-07-20T10:13:51;32.80;1.00
1429;DHT22;708;51.442;7.016;2023-07-20T10:16:22;32.50;1.00
1429;DHT22;708;51.442;7.016;2023-07-20T10:19:02;32.80;1.00
1429;DHT22;708;51.442;7.016;2023-07-20T10:21:34;33.40;1.00
1429;DHT22;708;51.442;7.016;2023-07-20T10:24:03;34.00;1.00
1429;DHT22;708;51.442;7.016;2023-07-20T10:26:30;34.60;1.00
1429;DHT22;708;51.442;7.016;2023-07-20T10:28:57;34.40;1.00
1429;DHT22;708;51.442;7.016;2023-07-20T10:31:25;33.40;1.00
1429;DHT22;708;51.442;7.016;2023-07-20T10:33:54;33.10;1.00
1429;DHT22;708;51.442;7.016;2023-07-20T10:36:25;32.90;1.00
1429;DHT22;708;51.442;7.016;2023-07-20T10:38:54;33.00;1.00
1429;DHT22;708;51.442;7.016;2023-07-20T10:41:27;33.10;1.00
1429;DHT22;708;51.442;7.016;2023-07-20T10:43:58;32.10;1.00
1429;DHT22;708;51.442;7.016;2023-07-20T10:46:44;31.20;1.00
1429;DHT22;708;51.442;7.016;2023-07-20T10:49:12;30.50;1.00
1429;DHT22;708;51.442;7.016;2023-07-20T10:51:41;29.90;1.00
1429;DHT22;708;51.442;7.016;2023-07-20T10:54:33;29.60;1.00
1429;DHT22;708;51.442;7.016;2023-07-20T10:57:21;29.30;1.00
1429;DHT22;708;51.442;7.016;2023-07-20T10:59:48;28.60;1.00
1429;DHT22;708;51.442;7.016;2023-07-20T11:02:18;28.20;1.00
1429;DHT22;708;51.442;7.016;2023-07-20T11:04:46;27.90;1.00
1429;DHT22;708;51.442;7.016;2023-07-20T11:07:16;27.90;1.00
1429;DHT22;708;51.442;7.016;2023-07-20T11:09:44;28.00;1.00
1429;DHT22;708;51.442;7.016;2023-07-20T11:12:12;28.30;1.00
1429;DHT22;708;51.442;7.016;2023-07-20T11:14:41;28.50;1.00
1429;DHT22;708;51.442;7.016;2023-07-20T11:17:12;28.60;1.00
1429;DHT22;708;51.442;7.016;2023-07-20T11:19:39;28.70;1.00
1429;DHT22;708;51.442;7.016;2023-07-20T11:22:07;28.50;1.00
1429;DHT22;708;51.442;7.016;2023-07-20T11:24:34;28.30;1.00
1429;DHT22;708;51.442;7.016;2023-07-20T11:27:03;28.30;1.00
1429;DHT22;708;51.442;7.016;2023-07-20T11:29:30;28.20;1.00
1429;DHT22;708;51.442;7.016;2023-07-20T11:31:57;27.90;1.00
1429;DHT22;708;51.442;7.016;2023-07-20T11:34:25;27.60;1.00
1429;DHT22;708;51.442;7.016;2023-07-20T11:36:52;27.50;1.00
1429;DHT22;708;51.442;7.016;2023-07-20T11:39:22;27.30;1.00
1429;DHT22;708;51.442;7.016;2023-07-20T11:41:52;27.30;1.00
1429;DHT22;708;51.442;7.016;2023-07-20T11:44:22;27.30;1.00
1429;DHT22;708;51.442;7.016;2023-07-20T11:46:59;27.40;1.00
1429;DHT22;708;51.442;7.016;2023-07-20T11:49:27;27.60;1.00
1429;DHT22;708;51.442;7.016;2023-07-20T11:51:55;27.80;1.00
1429;DHT22;708;51.442;7.016;2023-07-20T11:54:22;27.90;1.00
1429;DHT22;708;51.442;7.016;2023-07-20T11:56:53;27.90;1.00
1429;DHT22;708;51.442;7.016;2023-07-20T11:59:22;27.90;1.00
1429;DHT22;708;51.442;7.016;2023-07-20T12:01:49;28.10;1.00
1429;DHT22;708;51.442;7.016;2023-07-20T12:04:16;28.30;1.00
1429;DHT22;708;51.442;7.016;2023-07-20T12:06:42;28.50;1.00
1429;DHT22;708;51.442;7.016;2023-07-20T12:09:14;28.60;1.00
1429;DHT22;708;51.442;7.016;2023-07-20T12:11:44;28.60;1.00
1429;DHT22;708;51.442;7.016;2023-07-20T12:14:11;28.60;1.00
1429;DHT22;708;51.442;7.016;2023-07-20T12:16:39;28.60;1.00
1429;DHT22;708;51.442;7.016;2023-07-20T12:19:10;28.60;1.00
1429;DHT22;708;51.442;7.016;2023-07-20T12:21:38;28.50;1.00
1429;DHT22;708;51.442;7.016;2023-07-20T12:24:06;28.40;1.00
1429;DHT22;708;51.442;7.016;2023-07-20T12:26:34;28.30;1.00
1429;DHT22;708;51.442;7.016;2023-07-20T12:29:01;28.40;1.00
1429;DHT22;708;51.442;7.016;2023-07-20T12:31:29;28.30;1.00
1429;DHT22;708;51.442;7.016;2023-07-20T12:33:58;28.10;1.00
1429;DHT22;708;51.442;7.016;2023-07-20T12:36:24;28.00;1.00
1429;DHT22;708;51.442;7.016;2023-07-20T12:38:51;27.90;1.00
1429;DHT22;708;51.442;7.016;2023-07-20T12:41:17;27.80;1.00
1429;DHT22;708;51.442;7.016;2023-07-20T12:43:45;27.50;1.00
1429;DHT22;708;51.442;7.016;2023-07-20T12:46:13;27.20;1.00
1429;DHT22;708;51.442;7.016;2023-07-20T12:48:40;27.10;1.00
1429;DHT22;708;51.442;7.016;2023-07-20T12:51:09;27.20;1.00
1429;DHT22;708;51.442;7.016;2023-07-20T12:53:37;27.30;1.00
1429;DHT22;708;51.442;7.016;2023-07-20T12:56:04;27.40;1.00
1429;DHT22;708;51.442;7.016;2023-07-20T12:58:31;27.50;1.00
1429;DHT22;708;51.442;7.016;2023-07-20T13:00:58;27.50;1.00
1429;DHT22;708;51.442;7.016;2023-07-20T13:03:24;27.50;1.00
1429;DHT22;708;51.442;7.016;2023-07-20T13:05:51;27.50;1.00
1429;DHT22;708;51.442;7.016;2023-07-20T13:08:19;27.50;1.00
1429;DHT22;708;51.442;7.016;2023-07-20T13:10:50;27.60;1.00
1429;DHT22;708;51.442;7.016;2023-07-20T13:13:17;27.70;1.00
1429;DHT22;708;51.442;7.016;2023-07-20T13:15:45;27.80;1.00
1429;DHT22;708;51.442;7.016;2023-07-20T13:18:12;27.90;1.00
1429;DHT22;708;51.442;7.016;2023-07-20T13:20:39;28.00;1.00
1429;DHT22;708;51.442;7.016;2023-07-20T13:23:06;28.10;1.00
1429;DHT22;708;51.442;7.016;2023-07-20T13:25:34;28.10;1.00
1429;DHT22;708;51.442;7.016;2023-07-20T13:28:01;28.00;1.00
1429;DHT22;708;51.442;7.016;2023-07-20T13:30:28;27.90;1.00
1429;DHT22;708;51.442;7.016;2023-07-20T13:32:54;27.70;1.00
1429;DHT22;708;51.442;7.016;2023-07-20T13:35:21;27.60;1.00
1429;DHT22;708;51.442;7.016;2023-07-20T13:37:48;27.50;1.00
1429;DHT22;708;51.442;7.016;2023-07-20T13:40:15;27.40;1.00
1429;DHT22;708;51.442;7.016;2023-07-20T13:42:45;27.40;1.00
1429;DHT22;708;51.442;7.016;2023-07-20T13:45:12;27.60;1.00
1429;DHT22;708;51.442;7.016;2023-07-20T13:47:38;27.80;1.00
1429;DHT22;708;51.442;7.016;2023-07-20T13:50:06;28.00;1.00
1429;DHT22;708;51.442;7.016;2023-07-20T13:52:33;28.20;1.00
1429;DHT22;708;51.442;7.016;2023-07-20T13:55:00;28.30;1.00
1429;DHT22;708;51.442;7.016;2023-07-20T13:57:27;28.40;1.00
1429;DHT22;708;51.442;7.016;2023-07-20T13:59:55;28.50;1.00
1429;DHT22;708;51.442;7.016;2023-07-20T14:02:22;28.60;1.00
1429;DHT22;708;51.442;7.016;2023-07-20T14:04:48;28.60;1.00
1429;DHT22;708;51.442;7.016;2023-07-20T14:07:15;28.50;1.00
1429;DHT22;708;51.442;7.016;2023-07-20T14:09:42;28.40;1.00
1429;DHT22;708;51.442;7.016;2023-07-20T14:12:09;28.30;1.00
1429;DHT22;708;51.442;7.016;2023-07-20T14:14:39;28.20;1.00
1429;DHT22;708;51.442;7.016;2023-07-20T14:17:07;28.20;1.00
1429;DHT22;708;51.442;7.016;2023-07-20T14:19:36;28.10;1.00
1429;DHT22;708;51.442;7.016;2023-07-20T14:22:03;28.10;1.00
1429;DHT22;708;51.442;7.016;2023-07-20T14:24:30;28.10;1.00
1429;DHT22;708;51.442;7.016;2023-07-20T14:26:56;28.10;1.00
1429;DHT22;708;51.442;7.016;2023-07-20T14:29:23;28.20;1.00
1429;DHT22;708;51.442;7.016;2023-07-20T14:31:50;28.40;1.00
1429;DHT22;708;51.442;7.016;2023-07-20T14:34:19;28.50;1.00
1429;DHT22;708;51.442;7.016;2023-07-20T14:36:46;28.70;1.00
1429;DHT22;708;51.442;7.016;2023-07-20T14:39:12;28.80;1.00
1429;DHT22;708;51.442;7.016;2023-07-20T14:41:39;28.80;1.00
1429;DHT22;708;51.442;7.016;2023-07-20T14:44:06;28.90;1.00
1429;DHT22;708;51.442;7.016;2023-07-20T14:46:32;28.90;1.00
1429;DHT22;708;51.442;7.016;2023-07-20T14:48:59;28.80;1.00
1429;DHT22;708;51.442;7.016;2023-07-20T14:51:28;28.50;1.00
1429;DHT22;708;51.442;7.016;2023-07-20T14:53:58;28.30;1.00
1429;DHT22;708;51.442;7.016;2023-07-20T14:56:25;28.00;1.00
1429;DHT22;708;51.442;7.016;2023-07-20T14:58:52;27.90;1.00
1429;DHT22;708;51.442;7.016;2023-07-20T15:01:19;27.90;1.00
1429;DHT22;708;51.442;7.016;2023-07-20T15:03:46;28.10;1.00
1429;DHT22;708;51.442;7.016;2023-07-20T15:06:12;28.00;1.00
1429;DHT22;708;51.442;7.016;2023-07-20T15:08:40;28.10;1.00
1429;DHT22;708;51.442;7.016;2023-07-20T15:11:07;28.30;1.00
1429;DHT22;708;51.442;7.016;2023-07-20T15:13:34;28.40;1.00
1429;DHT22;708;51.442;7.016;2023-07-20T15:16:00;28.40;1.00
1429;DHT22;708;51.442;7.016;2023-07-20T15:18:27;28.20;1.00
1429;DHT22;708;51.442;7.016;2023-07-20T15:20:54;28.00;1.00
1429;DHT22;708;51.442;7.016;2023-07-20T15:23:21;28.00;1.00
1429;DHT22;708;51.442;7.016;2023-07-20T15:25:49;28.10;1.00
1429;DHT22;708;51.442;7.016;2023-07-20T15:28:16;27.90;1.00
1429;DHT22;708;51.442;7.016;2023-07-20T15:30:42;27.70;1.00
1429;DHT22;708;51.442;7.016;2023-07-20T15:33:11;27.50;1.00
1429;DHT22;708;51.442;7.016;2023-07-20T15:35:39;27.40;1.00
1429;DHT22;708;51.442;7.016;2023-07-20T15:38:06;27.40;1.00
1429;DHT22;708;51.442;7.016;2023-07-20T15:40:33;27.50;1.00
1429;DHT22;708;51.442;7.016;2023-07-20T15:43:01;27.60;1.00
1429;DHT22;708;51.442;7.016;2023-07-20T15:45:28;27.90;1.00
1429;DHT22;708;51.442;7.016;2023-07-20T15:47:55;28.00;1.00
1429;DHT22;708;51.442;7.016;2023-07-20T15:50:22;27.80;1.00
1429;DHT22;708;51.442;7.016;2023-07-20T15:52:49;27.70;1.00
1429;DHT22;708;51.442;7.016;2023-07-20T15:55:16;27.60;1.00
1429;DHT22;708;51.442;7.016;2023-07-20T15:57:42;27.50;1.00
1429;DHT22;708;51.442;7.016;2023-07-20T16:00:11;27.50;1.00
1429;DHT22;708;51.442;7.016;2023-07-20T16:02:38;27.20;1.00
1429;DHT22;708;51.442;7.016;2023-07-20T16:05:05;27.10;1.00
1429;DHT22;708;51.442;7.016;2023-07-20T16:07:32;27.00;1.00
1429;DHT22;708;51.442;7.016;2023-07-20T16:09:59;26.90;1.00
1429;DHT22;708;51.442;7.016;2023-07-20T16:12:28;26.80;1.00
1429;DHT22;708;51.442;7.016;2023-07-20T16:14:56;26.70;1.00
1429;DHT22;708;51.442;7.016;2023-07-20T16:17:25;26.50;1.00
1429;DHT22;708;51.442;7.016;2023-07-20T16:19:52;26.30;1.00
1429;DHT22;708;51.442;7.016;2023-07-20T16:22:18;26.20;1.00
1429;DHT22;708;51.442;7.016;2023-07-20T16:24:45;26.10;1.00
1429;DHT22;708;51.442;7.016;2023-07-20T16:27:12;26.10;1.00
1429;DHT22;708;51.442;7.016;2023-07-20T16:29:39;26.00;1.00
1429;DHT22;708;51.442;7.016;2023-07-20T16:32:06;26.00;1.00
1429;DHT22;708;51.442;7.016;2023-07-20T16:34:34;25.80;1.00
1429;DHT22;708;51.442;7.016;2023-07-20T16:37:01;25.80;1.00
1429;DHT22;708;51.442;7.016;2023-07-20T16:39:28;25.80;1.00
1429;DHT22;708;51.442;7.016;2023-07-20T16:41:56;25.80;1.00
1429;DHT22;708;51.442;7.016;2023-07-20T16:44:23;25.70;1.00
1429;DHT22;708;51.442;7.016;2023-07-20T16:46:49;25.60;1.00
1429;DHT22;708;51.442;7.016;2023-07-20T16:49:16;25.60;1.00